Terminal Aerodrome Forecast
Issued by NWS Anchorage, AK

Home | Current Version | Previous Version | Text Only | Print | Product List | Glossary On
Versions: 1 2 3 4 5 6 7 8 9 10 11 12 13 14 15 16 17 18 19 20 21 22 23 24 25 26 27 28 29 30 31 32 33 34
000
FTAK31 PAFC 210520
TAFANC
TAF
PANC 210520Z 2106/2212 VRB03KT P6SM SCT070 BKN140 WS020/13040KT
     FM211100 15009KT P6SM SCT070 BKN150 WS015/13045KT
     FM211600 36006KT P6SM FEW080 BKN200
     FM220900 33007KT P6SM BKN060=

USA.gov is the U.S. government's official web portal to all federal, state and local government web resources and services.